sensor_id;sensor_type;location;lat;lon;timestamp;temperature;humidity
56729;DHT22;42612;52.232;7.560;2023-04-15T00:00:42;14.20;46.90
56729;DHT22;42612;52.232;7.560;2023-04-15T00:03:07;14.20;47.00
56729;DHT22;42612;52.232;7.560;2023-04-15T00:05:33;14.20;47.00
56729;DHT22;42612;52.232;7.560;2023-04-15T00:07:59;14.10;46.90
56729;DHT22;42612;52.232;7.560;2023-04-15T00:10:26;14.00;46.80
56729;DHT22;42612;52.232;7.560;2023-04-15T00:12:52;14.00;46.90
56729;DHT22;42612;52.232;7.560;2023-04-15T00:15:18;14.00;47.00
56729;DHT22;42612;52.232;7.560;2023-04-15T00:17:44;13.90;47.00
56729;DHT22;42612;52.232;7.560;2023-04-15T00:20:10;13.90;47.10
56729;DHT22;42612;52.232;7.560;2023-04-15T00:22:36;13.80;47.10
56729;DHT22;42612;52.232;7.560;2023-04-15T00:25:02;13.80;47.20
56729;DHT22;42612;52.232;7.560;2023-04-15T00:27:28;13.70;47.20
56729;DHT22;42612;52.232;7.560;2023-04-15T00:29:54;13.70;47.40
56729;DHT22;42612;52.232;7.560;2023-04-15T00:32:20;13.60;47.40
56729;DHT22;42612;52.232;7.560;2023-04-15T00:34:46;13.60;47.60
56729;DHT22;42612;52.232;7.560;2023-04-15T00:37:12;13.60;47.80
56729;DHT22;42612;52.232;7.560;2023-04-15T00:39:38;13.60;47.90
56729;DHT22;42612;52.232;7.560;2023-04-15T00:42:04;13.50;47.90
56729;DHT22;42612;52.232;7.560;2023-04-15T00:44:30;13.50;47.80
56729;DHT22;42612;52.232;7.560;2023-04-15T00:46:57;13.50;47.60
56729;DHT22;42612;52.232;7.560;2023-04-15T00:49:23;13.50;47.60
56729;DHT22;42612;52.232;7.560;2023-04-15T00:51:49;13.50;47.60
56729;DHT22;42612;52.232;7.560;2023-04-15T00:54:15;13.50;47.60
56729;DHT22;42612;52.232;7.560;2023-04-15T00:56:42;13.40;47.60
56729;DHT22;42612;52.232;7.560;2023-04-15T00:59:08;13.40;47.70
56729;DHT22;42612;52.232;7.560;2023-04-15T01:01:35;13.40;47.80
56729;DHT22;42612;52.232;7.560;2023-04-15T01:04:02;13.30;47.80
56729;DHT22;42612;52.232;7.560;2023-04-15T01:06:30;13.20;47.80
56729;DHT22;42612;52.232;7.560;2023-04-15T01:08:56;13.30;48.00
56729;DHT22;42612;52.232;7.560;2023-04-15T01:11:23;13.20;48.30
56729;DHT22;42612;52.232;7.560;2023-04-15T01:13:50;13.20;47.90
56729;DHT22;42612;52.232;7.560;2023-04-15T01:16:18;13.20;48.00
56729;DHT22;42612;52.232;7.560;2023-04-15T01:18:44;13.20;48.00
56729;DHT22;42612;52.232;7.560;2023-04-15T01:21:10;13.10;48.00
56729;DHT22;42612;52.232;7.560;2023-04-15T01:23:37;13.10;48.10
56729;DHT22;42612;52.232;7.560;2023-04-15T01:26:04;13.10;48.10
56729;DHT22;42612;52.232;7.560;2023-04-15T01:28:30;13.00;48.30
56729;DHT22;42612;52.232;7.560;2023-04-15T01:31:11;13.00;48.30
56729;DHT22;42612;52.232;7.560;2023-04-15T01:33:38;13.00;48.90
56729;DHT22;42612;52.232;7.560;2023-04-15T01:36:05;12.90;48.40
56729;DHT22;42612;52.232;7.560;2023-04-15T01:38:33;12.90;48.70
56729;DHT22;42612;52.232;7.560;2023-04-15T01:40:58;12.90;48.10
56729;DHT22;42612;52.232;7.560;2023-04-15T01:43:25;12.80;48.20
56729;DHT22;42612;52.232;7.560;2023-04-15T01:45:51;12.80;48.40
56729;DHT22;42612;52.232;7.560;2023-04-15T01:48:17;12.70;48.40
56729;DHT22;42612;52.232;7.560;2023-04-15T01:50:43;12.70;48.60
56729;DHT22;42612;52.232;7.560;2023-04-15T01:53:09;12.60;48.70
56729;DHT22;42612;52.232;7.560;2023-04-15T01:55:35;12.50;48.80
56729;DHT22;42612;52.232;7.560;2023-04-15T01:58:01;12.50;49.20
56729;DHT22;42612;52.232;7.560;2023-04-15T02:00:27;12.40;49.30
56729;DHT22;42612;52.232;7.560;2023-04-15T02:02:54;12.40;49.60
56729;DHT22;42612;52.232;7.560;2023-04-15T02:05:19;12.40;49.80
56729;DHT22;42612;52.232;7.560;2023-04-15T02:07:45;12.40;49.90
56729;DHT22;42612;52.232;7.560;2023-04-15T02:10:11;12.30;50.00
56729;DHT22;42612;52.232;7.560;2023-04-15T02:12:41;12.30;50.00
56729;DHT22;42612;52.232;7.560;2023-04-15T02:15:07;12.30;50.00
56729;DHT22;42612;52.232;7.560;2023-04-15T02:17:37;12.30;50.00
56729;DHT22;42612;52.232;7.560;2023-04-15T02:20:03;12.30;49.80
56729;DHT22;42612;52.232;7.560;2023-04-15T02:22:33;12.20;49.70
56729;DHT22;42612;52.232;7.560;2023-04-15T02:24:59;12.20;49.70
56729;DHT22;42612;52.232;7.560;2023-04-15T02:27:25;12.20;49.80
56729;DHT22;42612;52.232;7.560;2023-04-15T02:29:50;12.20;50.00
56729;DHT22;42612;52.232;7.560;2023-04-15T02:32:16;12.10;50.20
56729;DHT22;42612;52.232;7.560;2023-04-15T02:34:43;12.10;50.30
56729;DHT22;42612;52.232;7.560;2023-04-15T02:37:12;12.10;50.40
56729;DHT22;42612;52.232;7.560;2023-04-15T02:39:38;12.10;50.70
56729;DHT22;42612;52.232;7.560;2023-04-15T02:42:04;12.10;50.60
56729;DHT22;42612;52.232;7.560;2023-04-15T02:44:31;12.10;50.70
56729;DHT22;42612;52.232;7.560;2023-04-15T02:46:57;12.10;50.60
56729;DHT22;42612;52.232;7.560;2023-04-15T02:49:23;12.10;51.40
56729;DHT22;42612;52.232;7.560;2023-04-15T02:51:50;12.00;50.70
56729;DHT22;42612;52.232;7.560;2023-04-15T02:54:19;12.00;50.80
56729;DHT22;42612;52.232;7.560;2023-04-15T02:56:47;12.00;51.30
56729;DHT22;42612;52.232;7.560;2023-04-15T02:59:13;12.00;50.50
56729;DHT22;42612;52.232;7.560;2023-04-15T03:01:38;12.00;50.40
56729;DHT22;42612;52.232;7.560;2023-04-15T03:04:04;12.00;50.40
56729;DHT22;42612;52.232;7.560;2023-04-15T03:06:32;11.90;50.30
56729;DHT22;42612;52.232;7.560;2023-04-15T03:08:57;11.90;50.60
56729;DHT22;42612;52.232;7.560;2023-04-15T03:11:24;11.90;50.50
56729;DHT22;42612;52.232;7.560;2023-04-15T03:13:51;11.90;50.50
56729;DHT22;42612;52.232;7.560;2023-04-15T03:16:17;11.90;50.60
56729;DHT22;42612;52.232;7.560;2023-04-15T03:18:42;11.90;50.60
56729;DHT22;42612;52.232;7.560;2023-04-15T03:21:08;11.80;50.70
56729;DHT22;42612;52.232;7.560;2023-04-15T03:23:34;11.80;50.70
56729;DHT22;42612;52.232;7.560;2023-04-15T03:26:04;11.80;50.50
56729;DHT22;42612;52.232;7.560;2023-04-15T03:28:30;11.80;50.70
56729;DHT22;42612;52.232;7.560;2023-04-15T03:30:57;11.80;50.60
56729;DHT22;42612;52.232;7.560;2023-04-15T03:33:23;11.80;50.60
56729;DHT22;42612;52.232;7.560;2023-04-15T03:35:50;11.70;50.90
56729;DHT22;42612;52.232;7.560;2023-04-15T03:38:16;11.70;51.10
56729;DHT22;42612;52.232;7.560;2023-04-15T03:40:42;11.70;51.10
56729;DHT22;42612;52.232;7.560;2023-04-15T03:43:08;11.70;51.20
56729;DHT22;42612;52.232;7.560;2023-04-15T03:45:34;11.70;51.30
56729;DHT22;42612;52.232;7.560;2023-04-15T03:48:00;11.70;51.40
56729;DHT22;42612;52.232;7.560;2023-04-15T03:50:26;11.70;51.20
56729;DHT22;42612;52.232;7.560;2023-04-15T03:52:52;11.70;51.10
56729;DHT22;42612;52.232;7.560;2023-04-15T03:55:18;11.70;51.00
56729;DHT22;42612;52.232;7.560;2023-04-15T03:57:44;11.60;50.90
56729;DHT22;42612;52.232;7.560;2023-04-15T04:00:11;11.60;51.00
56729;DHT22;42612;52.232;7.560;2023-04-15T04:02:36;11.60;51.00
56729;DHT22;42612;52.232;7.560;2023-04-15T04:05:02;11.60;51.00
56729;DHT22;42612;52.232;7.560;2023-04-15T04:07:28;11.50;51.00
56729;DHT22;42612;52.232;7.560;2023-04-15T04:09:57;11.50;50.90
56729;DHT22;42612;52.232;7.560;2023-04-15T04:12:22;11.50;51.00
56729;DHT22;42612;52.232;7.560;2023-04-15T04:14:48;11.50;51.00
56729;DHT22;42612;52.232;7.560;2023-04-15T04:17:14;11.40;50.90
56729;DHT22;42612;52.232;7.560;2023-04-15T04:19:40;11.40;50.90
56729;DHT22;42612;52.232;7.560;2023-04-15T04:22:05;11.40;51.00
56729;DHT22;42612;52.232;7.560;2023-04-15T04:24:31;11.40;50.90
56729;DHT22;42612;52.232;7.560;2023-04-15T04:26:57;11.30;50.80
56729;DHT22;42612;52.232;7.560;2023-04-15T04:29:22;11.30;50.90
56729;DHT22;42612;52.232;7.560;2023-04-15T04:31:48;11.20;51.00
56729;DHT22;42612;52.232;7.560;2023-04-15T04:34:15;11.20;51.00
56729;DHT22;42612;52.232;7.560;2023-04-15T04:36:40;11.20;51.30
56729;DHT22;42612;52.232;7.560;2023-04-15T04:39:06;11.20;51.70
56729;DHT22;42612;52.232;7.560;2023-04-15T04:41:32;11.20;51.80
56729;DHT22;42612;52.232;7.560;2023-04-15T04:43:58;11.20;51.90
56729;DHT22;42612;52.232;7.560;2023-04-15T04:46:23;11.20;51.90
56729;DHT22;42612;52.232;7.560;2023-04-15T04:48:49;11.20;51.80
56729;DHT22;42612;52.232;7.560;2023-04-15T04:51:15;11.20;51.90
56729;DHT22;42612;52.232;7.560;2023-04-15T04:53:41;11.20;51.90
56729;DHT22;42612;52.232;7.560;2023-04-15T04:56:07;11.20;52.40
56729;DHT22;42612;52.232;7.560;2023-04-15T04:58:33;11.20;52.50
56729;DHT22;42612;52.232;7.560;2023-04-15T05:00:59;11.20;52.50
56729;DHT22;42612;52.232;7.560;2023-04-15T05:03:25;11.30;52.60
56729;DHT22;42612;52.232;7.560;2023-04-15T05:05:50;11.20;52.70
56729;DHT22;42612;52.232;7.560;2023-04-15T05:08:16;11.20;52.60
56729;DHT22;42612;52.232;7.560;2023-04-15T05:10:42;11.20;52.60
56729;DHT22;42612;52.232;7.560;2023-04-15T05:13:08;11.20;52.70
56729;DHT22;42612;52.232;7.560;2023-04-15T05:15:33;11.20;52.60
56729;DHT22;42612;52.232;7.560;2023-04-15T05:18:01;11.20;52.60
56729;DHT22;42612;52.232;7.560;2023-04-15T05:20:27;11.20;52.70
56729;DHT22;42612;52.232;7.560;2023-04-15T05:22:53;11.20;52.80
56729;DHT22;42612;52.232;7.560;2023-04-15T05:25:19;11.20;52.80
56729;DHT22;42612;52.232;7.560;2023-04-15T05:27:44;11.20;52.90
56729;DHT22;42612;52.232;7.560;2023-04-15T05:30:10;11.20;52.70
56729;DHT22;42612;52.232;7.560;2023-04-15T05:32:36;11.10;52.60
56729;DHT22;42612;52.232;7.560;2023-04-15T05:35:02;11.00;52.70
56729;DHT22;42612;52.232;7.560;2023-04-15T05:37:28;11.00;52.80
56729;DHT22;42612;52.232;7.560;2023-04-15T05:39:53;10.80;52.90
56729;DHT22;42612;52.232;7.560;2023-04-15T05:42:19;10.80;53.30
56729;DHT22;42612;52.232;7.560;2023-04-15T05:44:45;10.70;53.70
56729;DHT22;42612;52.232;7.560;2023-04-15T05:47:11;10.60;54.00
56729;DHT22;42612;52.232;7.560;2023-04-15T05:49:36;10.60;54.00
56729;DHT22;42612;52.232;7.560;2023-04-15T05:52:02;10.60;54.40
56729;DHT22;42612;52.232;7.560;2023-04-15T05:54:28;10.60;54.60
56729;DHT22;42612;52.232;7.560;2023-04-15T05:56:54;10.50;54.50
56729;DHT22;42612;52.232;7.560;2023-04-15T05:59:21;10.60;54.60
56729;DHT22;42612;52.232;7.560;2023-04-15T06:01:47;10.50;54.70
56729;DHT22;42612;52.232;7.560;2023-04-15T06:04:13;10.50;54.90
56729;DHT22;42612;52.232;7.560;2023-04-15T06:06:39;10.40;55.30
56729;DHT22;42612;52.232;7.560;2023-04-15T06:09:05;10.40;55.50
56729;DHT22;42612;52.232;7.560;2023-04-15T06:11:31;10.40;55.70
56729;DHT22;42612;52.232;7.560;2023-04-15T06:13:56;10.40;55.90
56729;DHT22;42612;52.232;7.560;2023-04-15T06:16:22;10.30;56.10
56729;DHT22;42612;52.232;7.560;2023-04-15T06:18:48;10.30;56.10
56729;DHT22;42612;52.232;7.560;2023-04-15T06:21:14;10.30;56.40
56729;DHT22;42612;52.232;7.560;2023-04-15T06:23:40;10.20;56.40
56729;DHT22;42612;52.232;7.560;2023-04-15T06:26:06;10.20;56.80
56729;DHT22;42612;52.232;7.560;2023-04-15T06:28:32;10.20;57.80
56729;DHT22;42612;52.232;7.560;2023-04-15T06:30:58;10.20;57.00
56729;DHT22;42612;52.232;7.560;2023-04-15T06:33:25;10.20;57.60
56729;DHT22;42612;52.232;7.560;2023-04-15T06:35:51;10.20;57.80
56729;DHT22;42612;52.232;7.560;2023-04-15T06:38:17;10.20;57.60
56729;DHT22;42612;52.232;7.560;2023-04-15T06:40:42;10.20;57.70
56729;DHT22;42612;52.232;7.560;2023-04-15T06:43:08;10.20;57.50
56729;DHT22;42612;52.232;7.560;2023-04-15T06:45:34;10.20;57.60
56729;DHT22;42612;52.232;7.560;2023-04-15T06:48:00;10.20;57.80
56729;DHT22;42612;52.232;7.560;2023-04-15T06:50:26;10.20;57.80
56729;DHT22;42612;52.232;7.560;2023-04-15T06:52:53;10.20;57.70
56729;DHT22;42612;52.232;7.560;2023-04-15T06:55:20;10.20;58.10
56729;DHT22;42612;52.232;7.560;2023-04-15T06:57:45;10.20;58.10
56729;DHT22;42612;52.232;7.560;2023-04-15T07:00:11;10.20;58.40
56729;DHT22;42612;52.232;7.560;2023-04-15T07:02:37;10.30;58.50
56729;DHT22;42612;52.232;7.560;2023-04-15T07:05:05;10.30;58.50
56729;DHT22;42612;52.232;7.560;2023-04-15T07:07:31;10.30;58.90
56729;DHT22;42612;52.232;7.560;2023-04-15T07:09:57;10.30;60.30
56729;DHT22;42612;52.232;7.560;2023-04-15T07:12:22;10.30;58.40
56729;DHT22;42612;52.232;7.560;2023-04-15T07:14:48;10.40;58.60
56729;DHT22;42612;52.232;7.560;2023-04-15T07:17:14;10.40;58.90
56729;DHT22;42612;52.232;7.560;2023-04-15T07:19:40;10.40;59.10
56729;DHT22;42612;52.232;7.560;2023-04-15T07:22:05;10.50;59.10
56729;DHT22;42612;52.232;7.560;2023-04-15T07:24:32;10.60;59.50
56729;DHT22;42612;52.232;7.560;2023-04-15T07:26:57;10.60;59.20
56729;DHT22;42612;52.232;7.560;2023-04-15T07:29:24;10.70;59.70
56729;DHT22;42612;52.232;7.560;2023-04-15T07:31:51;10.70;59.70
56729;DHT22;42612;52.232;7.560;2023-04-15T07:34:18;10.70;59.80
56729;DHT22;42612;52.232;7.560;2023-04-15T07:36:44;10.80;59.80
56729;DHT22;42612;52.232;7.560;2023-04-15T07:39:10;10.80;59.50
56729;DHT22;42612;52.232;7.560;2023-04-15T07:41:36;10.90;59.80
56729;DHT22;42612;52.232;7.560;2023-04-15T07:44:02;10.90;59.50
56729;DHT22;42612;52.232;7.560;2023-04-15T07:46:28;10.90;59.60
56729;DHT22;42612;52.232;7.560;2023-04-15T07:48:54;10.90;59.50
56729;DHT22;42612;52.232;7.560;2023-04-15T07:51:19;11.00;59.70
56729;DHT22;42612;52.232;7.560;2023-04-15T07:53:46;11.00;59.60
56729;DHT22;42612;52.232;7.560;2023-04-15T07:56:12;11.00;59.50
56729;DHT22;42612;52.232;7.560;2023-04-15T07:58:38;11.00;59.50
56729;DHT22;42612;52.232;7.560;2023-04-15T08:01:04;11.00;59.50
56729;DHT22;42612;52.232;7.560;2023-04-15T08:03:30;11.00;59.40
56729;DHT22;42612;52.232;7.560;2023-04-15T08:05:59;11.10;59.80
56729;DHT22;42612;52.232;7.560;2023-04-15T08:08:26;11.00;59.70
56729;DHT22;42612;52.232;7.560;2023-04-15T08:10:51;11.00;59.60
56729;DHT22;42612;52.232;7.560;2023-04-15T08:13:17;11.10;59.80
56729;DHT22;42612;52.232;7.560;2023-04-15T08:15:43;11.10;60.10
56729;DHT22;42612;52.232;7.560;2023-04-15T08:18:09;11.10;60.00
56729;DHT22;42612;52.232;7.560;2023-04-15T08:20:35;11.10;60.40
56729;DHT22;42612;52.232;7.560;2023-04-15T08:23:02;11.10;60.40
56729;DHT22;42612;52.232;7.560;2023-04-15T08:25:28;11.10;60.20
56729;DHT22;42612;52.232;7.560;2023-04-15T08:27:54;11.20;60.10
56729;DHT22;42612;52.232;7.560;2023-04-15T08:30:21;11.20;60.20
56729;DHT22;42612;52.232;7.560;2023-04-15T08:32:49;11.20;60.40
56729;DHT22;42612;52.232;7.560;2023-04-15T08:35:15;11.30;60.20
56729;DHT22;42612;52.232;7.560;2023-04-15T08:37:41;11.30;60.30
56729;DHT22;42612;52.232;7.560;2023-04-15T08:40:07;11.30;60.20
56729;DHT22;42612;52.232;7.560;2023-04-15T08:42:40;11.40;60.20
56729;DHT22;42612;52.232;7.560;2023-04-15T08:45:09;11.40;61.00
56729;DHT22;42612;52.232;7.560;2023-04-15T08:47:36;11.40;60.30
56729;DHT22;42612;52.232;7.560;2023-04-15T08:50:04;11.40;61.00
56729;DHT22;42612;52.232;7.560;2023-04-15T08:52:33;11.40;60.20
56729;DHT22;42612;52.232;7.560;2023-04-15T08:55:01;11.40;60.00
56729;DHT22;42612;52.232;7.560;2023-04-15T08:57:28;11.50;60.30
56729;DHT22;42612;52.232;7.560;2023-04-15T08:59:57;11.50;60.40
56729;DHT22;42612;52.232;7.560;2023-04-15T09:02:24;11.50;60.40
56729;DHT22;42612;52.232;7.560;2023-04-15T09:04:52;11.50;60.30
56729;DHT22;42612;52.232;7.560;2023-04-15T09:07:18;11.50;60.30
56729;DHT22;42612;52.232;7.560;2023-04-15T09:09:44;11.50;60.10
56729;DHT22;42612;52.232;7.560;2023-04-15T09:12:10;11.50;60.10
56729;DHT22;42612;52.232;7.560;2023-04-15T09:14:42;11.50;60.20
56729;DHT22;42612;52.232;7.560;2023-04-15T09:17:09;11.50;60.40
56729;DHT22;42612;52.232;7.560;2023-04-15T09:19:36;11.50;60.20
56729;DHT22;42612;52.232;7.560;2023-04-15T09:22:02;11.50;60.30
56729;DHT22;42612;52.232;7.560;2023-04-15T09:24:38;11.50;60.40
56729;DHT22;42612;52.232;7.560;2023-04-15T09:27:05;11.50;61.40
56729;DHT22;42612;52.232;7.560;2023-04-15T09:29:31;11.50;60.30
56729;DHT22;42612;52.232;7.560;2023-04-15T09:32:12;11.50;60.40
56729;DHT22;42612;52.232;7.560;2023-04-15T09:34:39;11.60;61.40
56729;DHT22;42612;52.232;7.560;2023-04-15T09:37:04;11.60;60.50
56729;DHT22;42612;52.232;7.560;2023-04-15T09:39:47;11.60;60.40
56729;DHT22;42612;52.232;7.560;2023-04-15T09:42:14;11.60;62.50
56729;DHT22;42612;52.232;7.560;2023-04-15T09:44:42;11.70;60.40
56729;DHT22;42612;52.232;7.560;2023-04-15T09:47:08;11.70;60.50
56729;DHT22;42612;52.232;7.560;2023-04-15T09:49:33;11.70;60.40
56729;DHT22;42612;52.232;7.560;2023-04-15T09:52:01;11.80;60.80
56729;DHT22;42612;52.232;7.560;2023-04-15T09:54:37;11.80;61.00
56729;DHT22;42612;52.232;7.560;2023-04-15T09:57:08;11.90;61.70
56729;DHT22;42612;52.232;7.560;2023-04-15T09:59:34;11.90;61.30
56729;DHT22;42612;52.232;7.560;2023-04-15T10:02:04;11.90;60.80
56729;DHT22;42612;52.232;7.560;2023-04-15T10:04:35;12.00;60.90
56729;DHT22;42612;52.232;7.560;2023-04-15T10:07:03;12.00;61.00
56729;DHT22;42612;52.232;7.560;2023-04-15T10:09:30;12.00;61.10
56729;DHT22;42612;52.232;7.560;2023-04-15T10:11:57;12.00;61.10
56729;DHT22;42612;52.232;7.560;2023-04-15T10:14:25;12.00;61.20
56729;DHT22;42612;52.232;7.560;2023-04-15T10:16:55;12.00;61.70
56729;DHT22;42612;52.232;7.560;2023-04-15T10:19:26;12.00;62.00
56729;DHT22;42612;52.232;7.560;2023-04-15T10:21:58;12.10;61.60
56729;DHT22;42612;52.232;7.560;2023-04-15T10:24:24;12.00;61.60
56729;DHT22;42612;52.232;7.560;2023-04-15T10:26:51;12.10;61.60
56729;DHT22;42612;52.232;7.560;2023-04-15T10:29:17;12.10;61.60
56729;DHT22;42612;52.232;7.560;2023-04-15T10:31:43;12.20;61.70
56729;DHT22;42612;52.232;7.560;2023-04-15T10:34:10;12.20;61.60
56729;DHT22;42612;52.232;7.560;2023-04-15T10:36:36;12.20;61.70
56729;DHT22;42612;52.232;7.560;2023-04-15T10:44:38;12.30;62.90
56729;DHT22;42612;52.232;7.560;2023-04-15T10:47:18;12.30;62.00
56729;DHT22;42612;52.232;7.560;2023-04-15T10:49:57;12.30;62.60
56729;DHT22;42612;52.232;7.560;2023-04-15T10:52:25;12.30;62.60
56729;DHT22;42612;52.232;7.560;2023-04-15T10:55:24;12.40;61.60
56729;DHT22;42612;52.232;7.560;2023-04-15T10:57:58;12.40;62.50
56729;DHT22;42612;52.232;7.560;2023-04-15T11:00:29;12.40;61.80
56729;DHT22;42612;52.232;7.560;2023-04-15T11:02:56;12.30;61.70
56729;DHT22;42612;52.232;7.560;2023-04-15T11:08:13;12.30;62.40
56729;DHT22;42612;52.232;7.560;2023-04-15T11:13:16;12.30;61.60
56729;DHT22;42612;52.232;7.560;2023-04-15T11:15:43;12.30;62.60
56729;DHT22;42612;52.232;7.560;2023-04-15T11:18:10;12.30;61.90
56729;DHT22;42612;52.232;7.560;2023-04-15T11:20:38;12.30;61.50
56729;DHT22;42612;52.232;7.560;2023-04-15T11:23:05;12.30;61.40
56729;DHT22;42612;52.232;7.560;2023-04-15T11:25:33;12.30;61.00
56729;DHT22;42612;52.232;7.560;2023-04-15T11:28:00;12.30;61.30
56729;DHT22;42612;52.232;7.560;2023-04-15T11:30:28;12.30;61.50
56729;DHT22;42612;52.232;7.560;2023-04-15T11:33:01;12.30;61.80
56729;DHT22;42612;52.232;7.560;2023-04-15T11:35:28;12.30;62.40
56729;DHT22;42612;52.232;7.560;2023-04-15T11:37:54;12.30;62.00
56729;DHT22;42612;52.232;7.560;2023-04-15T11:40:29;12.30;62.00
56729;DHT22;42612;52.232;7.560;2023-04-15T11:43:15;12.30;63.00
56729;DHT22;42612;52.232;7.560;2023-04-15T11:45:55;12.30;63.70
56729;DHT22;42612;52.232;7.560;2023-04-15T11:48:33;12.30;62.80
56729;DHT22;42612;52.232;7.560;2023-04-15T11:51:05;12.30;62.40
56729;DHT22;42612;52.232;7.560;2023-04-15T11:56:01;12.40;62.70
56729;DHT22;42612;52.232;7.560;2023-04-15T11:58:29;12.40;62.40
56729;DHT22;42612;52.232;7.560;2023-04-15T12:00:59;12.40;62.70
56729;DHT22;42612;52.232;7.560;2023-04-15T12:03:30;12.40;62.80
56729;DHT22;42612;52.232;7.560;2023-04-15T12:06:23;12.40;62.90
56729;DHT22;42612;52.232;7.560;2023-04-15T12:13:53;12.40;62.40
56729;DHT22;42612;52.232;7.560;2023-04-15T12:16:21;12.40;62.80
56729;DHT22;42612;52.232;7.560;2023-04-15T12:18:50;12.40;62.70
56729;DHT22;42612;52.232;7.560;2023-04-15T12:21:19;12.50;63.30
56729;DHT22;42612;52.232;7.560;2023-04-15T12:23:53;12.50;63.10
56729;DHT22;42612;52.232;7.560;2023-04-15T12:26:43;12.50;63.60
56729;DHT22;42612;52.232;7.560;2023-04-15T12:29:13;12.50;63.70
56729;DHT22;42612;52.232;7.560;2023-04-15T12:31:54;12.50;63.20
56729;DHT22;42612;52.232;7.560;2023-04-15T12:34:36;12.50;63.40
56729;DHT22;42612;52.232;7.560;2023-04-15T12:37:08;12.50;63.30
56729;DHT22;42612;52.232;7.560;2023-04-15T12:39:40;12.60;63.00
56729;DHT22;42612;52.232;7.560;2023-04-15T12:42:07;12.60;63.10
56729;DHT22;42612;52.232;7.560;2023-04-15T12:44:35;12.60;63.00
56729;DHT22;42612;52.232;7.560;2023-04-15T12:47:01;12.60;62.80
56729;DHT22;42612;52.232;7.560;2023-04-15T12:49:28;12.70;62.80
56729;DHT22;42612;52.232;7.560;2023-04-15T12:51:55;12.70;63.60
56729;DHT22;42612;52.232;7.560;2023-04-15T12:54:22;12.70;63.00
56729;DHT22;42612;52.232;7.560;2023-04-15T12:56:49;12.70;62.80
56729;DHT22;42612;52.232;7.560;2023-04-15T12:59:15;12.70;63.00
56729;DHT22;42612;52.232;7.560;2023-04-15T13:01:43;12.70;62.90
56729;DHT22;42612;52.232;7.560;2023-04-15T13:04:09;12.70;62.90
56729;DHT22;42612;52.232;7.560;2023-04-15T13:06:35;12.70;62.90
56729;DHT22;42612;52.232;7.560;2023-04-15T13:09:02;12.70;63.10
56729;DHT22;42612;52.232;7.560;2023-04-15T13:11:29;12.70;63.20
56729;DHT22;42612;52.232;7.560;2023-04-15T13:13:56;12.70;63.10
56729;DHT22;42612;52.232;7.560;2023-04-15T13:16:22;12.70;63.40
56729;DHT22;42612;52.232;7.560;2023-04-15T13:18:48;12.70;62.80
56729;DHT22;42612;52.232;7.560;2023-04-15T13:21:15;12.70;62.70
56729;DHT22;42612;52.232;7.560;2023-04-15T13:23:41;12.70;62.70
56729;DHT22;42612;52.232;7.560;2023-04-15T13:26:07;12.70;62.80
56729;DHT22;42612;52.232;7.560;2023-04-15T13:28:33;12.70;62.90
56729;DHT22;42612;52.232;7.560;2023-04-15T13:30:59;12.60;63.00
56729;DHT22;42612;52.232;7.560;2023-04-15T13:33:26;12.60;63.00
56729;DHT22;42612;52.232;7.560;2023-04-15T13:35:52;12.70;63.20
56729;DHT22;42612;52.232;7.560;2023-04-15T13:38:18;12.70;63.30
56729;DHT22;42612;52.232;7.560;2023-04-15T13:40:44;12.70;63.00
56729;DHT22;42612;52.232;7.560;2023-04-15T13:43:10;12.60;62.80
56729;DHT22;42612;52.232;7.560;2023-04-15T13:45:36;12.60;62.80
56729;DHT22;42612;52.232;7.560;2023-04-15T13:48:02;12.60;62.90
56729;DHT22;42612;52.232;7.560;2023-04-15T13:50:28;12.60;63.30
56729;DHT22;42612;52.232;7.560;2023-04-15T13:52:54;12.50;63.20
56729;DHT22;42612;52.232;7.560;2023-04-15T13:55:19;12.50;63.50
56729;DHT22;42612;52.232;7.560;2023-04-15T13:57:45;12.50;63.50
56729;DHT22;42612;52.232;7.560;2023-04-15T14:00:11;12.50;63.40
56729;DHT22;42612;52.232;7.560;2023-04-15T14:02:39;12.50;63.40
56729;DHT22;42612;52.232;7.560;2023-04-15T14:05:06;12.50;63.30
56729;DHT22;42612;52.232;7.560;2023-04-15T14:07:32;12.50;63.20
56729;DHT22;42612;52.232;7.560;2023-04-15T14:09:59;12.50;63.30
56729;DHT22;42612;52.232;7.560;2023-04-15T14:12:25;12.40;63.30
56729;DHT22;42612;52.232;7.560;2023-04-15T14:14:51;12.40;63.40
56729;DHT22;42612;52.232;7.560;2023-04-15T14:17:16;12.40;63.40
56729;DHT22;42612;52.232;7.560;2023-04-15T14:19:42;12.30;63.50
56729;DHT22;42612;52.232;7.560;2023-04-15T14:22:08;12.30;63.60
56729;DHT22;42612;52.232;7.560;2023-04-15T14:24:33;12.30;63.80
56729;DHT22;42612;52.232;7.560;2023-04-15T14:26:59;12.20;63.90
56729;DHT22;42612;52.232;7.560;2023-04-15T14:29:26;12.20;64.00
56729;DHT22;42612;52.232;7.560;2023-04-15T14:31:52;12.30;64.10
56729;DHT22;42612;52.232;7.560;2023-04-15T14:34:19;12.20;64.10
56729;DHT22;42612;52.232;7.560;2023-04-15T14:36:46;12.20;64.10
56729;DHT22;42612;52.232;7.560;2023-04-15T14:39:13;12.20;64.20
56729;DHT22;42612;52.232;7.560;2023-04-15T14:41:39;12.20;64.20
56729;DHT22;42612;52.232;7.560;2023-04-15T14:44:05;12.20;64.00
56729;DHT22;42612;52.232;7.560;2023-04-15T14:46:33;12.20;63.90
56729;DHT22;42612;52.232;7.560;2023-04-15T14:48:59;12.20;63.90
56729;DHT22;42612;52.232;7.560;2023-04-15T14:51:25;12.20;64.30
56729;DHT22;42612;52.232;7.560;2023-04-15T14:53:51;12.10;64.40
56729;DHT22;42612;52.232;7.560;2023-04-15T14:56:16;12.10;64.20
56729;DHT22;42612;52.232;7.560;2023-04-15T14:58:42;12.10;64.50
56729;DHT22;42612;52.232;7.560;2023-04-15T15:01:08;12.00;64.40
56729;DHT22;42612;52.232;7.560;2023-04-15T15:03:34;12.00;64.50
56729;DHT22;42612;52.232;7.560;2023-04-15T15:06:00;12.00;64.50
56729;DHT22;42612;52.232;7.560;2023-04-15T15:08:26;12.00;64.60
56729;DHT22;42612;52.232;7.560;2023-04-15T15:10:51;11.90;64.60
56729;DHT22;42612;52.232;7.560;2023-04-15T15:13:17;11.90;64.70
56729;DHT22;42612;52.232;7.560;2023-04-15T15:15:43;11.90;64.80
56729;DHT22;42612;52.232;7.560;2023-04-15T15:18:09;11.90;65.00
56729;DHT22;42612;52.232;7.560;2023-04-15T15:20:35;11.80;65.00
56729;DHT22;42612;52.232;7.560;2023-04-15T15:23:01;11.80;64.90
56729;DHT22;42612;52.232;7.560;2023-04-15T15:25:27;11.80;64.90
56729;DHT22;42612;52.232;7.560;2023-04-15T15:28:12;11.80;65.10
56729;DHT22;42612;52.232;7.560;2023-04-15T15:30:38;11.80;65.10
56729;DHT22;42612;52.232;7.560;2023-04-15T15:33:04;11.80;65.10
56729;DHT22;42612;52.232;7.560;2023-04-15T15:35:30;11.80;65.10
56729;DHT22;42612;52.232;7.560;2023-04-15T15:37:56;11.80;65.20
56729;DHT22;42612;52.232;7.560;2023-04-15T15:40:42;11.80;65.20
56729;DHT22;42612;52.232;7.560;2023-04-15T15:43:08;11.80;65.20
56729;DHT22;42612;52.232;7.560;2023-04-15T15:45:34;11.80;65.50
56729;DHT22;42612;52.232;7.560;2023-04-15T15:48:00;11.80;65.30